sensor_id;sensor_type;location;lat;lon;timestamp;pressure;altitude;pressure_sealevel;temperature;humidity
59063;BME280;44851;45.648;9.004;2023-03-11T00:01:05;97301.72;;;12.37;36.40
59063;BME280;44851;45.648;9.004;2023-03-11T00:03:31;97296.81;;;12.28;36.97
59063;BME280;44851;45.648;9.004;2023-03-11T00:05:59;97297.63;;;12.28;35.99
59063;BME280;44851;45.648;9.004;2023-03-11T00:08:25;97291.81;;;12.26;36.49
59063;BME280;44851;45.648;9.004;2023-03-11T00:10:54;97287.53;;;12.25;36.29
59063;BME280;44851;45.648;9.004;2023-03-11T00:13:20;97294.78;;;12.23;36.71
59063;BME280;44851;45.648;9.004;2023-03-11T00:15:48;97297.25;;;12.31;37.25
59063;BME280;44851;45.648;9.004;2023-03-11T00:18:15;97310.03;;;12.20;36.90
59063;BME280;44851;45.648;9.004;2023-03-11T00:20:43;97299.34;;;12.14;36.67
59063;BME280;44851;45.648;9.004;2023-03-11T00:23:11;97291.94;;;12.18;36.68
59063;BME280;44851;45.648;9.004;2023-03-11T00:25:38;97288.50;;;12.17;37.04
59063;BME280;44851;45.648;9.004;2023-03-11T00:28:05;97292.13;;;12.16;36.76
59063;BME280;44851;45.648;9.004;2023-03-11T00:30:35;97288.72;;;12.16;37.10
59063;BME280;44851;45.648;9.004;2023-03-11T00:33:00;97288.31;;;12.19;36.69
59063;BME280;44851;45.648;9.004;2023-03-11T00:35:30;97290.34;;;12.24;36.56
59063;BME280;44851;45.648;9.004;2023-03-11T00:37:58;97279.50;;;12.20;36.76
59063;BME280;44851;45.648;9.004;2023-03-11T00:40:25;97295.91;;;12.14;36.93
59063;BME280;44851;45.648;9.004;2023-03-11T00:42:51;97317.25;;;12.17;37.27
59063;BME280;44851;45.648;9.004;2023-03-11T00:45:17;97318.06;;;12.18;37.01
59063;BME280;44851;45.648;9.004;2023-03-11T00:47:43;97301.78;;;12.16;37.46
59063;BME280;44851;45.648;9.004;2023-03-11T00:50:09;97284.72;;;12.20;37.43
59063;BME280;44851;45.648;9.004;2023-03-11T00:52:38;97271.03;;;12.18;37.82
59063;BME280;44851;45.648;9.004;2023-03-11T00:55:04;97275.78;;;12.08;37.56
59063;BME280;44851;45.648;9.004;2023-03-11T00:57:30;97275.44;;;12.11;37.47
59063;BME280;44851;45.648;9.004;2023-03-11T00:59:55;97257.16;;;12.11;37.31
59063;BME280;44851;45.648;9.004;2023-03-11T01:02:21;97241.31;;;12.19;37.15
59063;BME280;44851;45.648;9.004;2023-03-11T01:04:46;97244.47;;;12.08;37.69
59063;BME280;44851;45.648;9.004;2023-03-11T01:07:12;97248.44;;;12.04;37.29
59063;BME280;44851;45.648;9.004;2023-03-11T01:09:38;97246.69;;;12.11;37.22
59063;BME280;44851;45.648;9.004;2023-03-11T01:12:03;97236.66;;;12.14;37.41
59063;BME280;44851;45.648;9.004;2023-03-11T01:14:29;97252.69;;;12.05;37.08
59063;BME280;44851;45.648;9.004;2023-03-11T01:16:54;97244.09;;;12.11;37.42
59063;BME280;44851;45.648;9.004;2023-03-11T01:19:21;97218.13;;;12.03;37.53
59063;BME280;44851;45.648;9.004;2023-03-11T01:21:47;97213.31;;;12.06;37.49
59063;BME280;44851;45.648;9.004;2023-03-11T01:24:12;97216.88;;;11.99;38.04
59063;BME280;44851;45.648;9.004;2023-03-11T01:26:37;97226.25;;;11.93;37.14
59063;BME280;44851;45.648;9.004;2023-03-11T01:29:03;97225.66;;;11.91;37.40
59063;BME280;44851;45.648;9.004;2023-03-11T01:31:28;97225.44;;;11.92;37.88
59063;BME280;44851;45.648;9.004;2023-03-11T01:33:54;97216.34;;;11.82;37.54
59063;BME280;44851;45.648;9.004;2023-03-11T01:36:19;97217.78;;;11.84;37.34
59063;BME280;44851;45.648;9.004;2023-03-11T01:38:45;97219.38;;;11.85;37.25
59063;BME280;44851;45.648;9.004;2023-03-11T01:41:11;97226.41;;;11.85;37.49
59063;BME280;44851;45.648;9.004;2023-03-11T01:43:47;97231.97;;;11.75;37.02
59063;BME280;44851;45.648;9.004;2023-03-11T01:46:23;97215.94;;;11.78;37.66
59063;BME280;44851;45.648;9.004;2023-03-11T01:48:53;97219.69;;;11.69;37.37
59063;BME280;44851;45.648;9.004;2023-03-11T01:51:29;97213.47;;;11.70;37.52
59063;BME280;44851;45.648;9.004;2023-03-11T01:53:59;97198.03;;;11.75;37.36
59063;BME280;44851;45.648;9.004;2023-03-11T01:56:25;97197.22;;;11.75;37.10
59063;BME280;44851;45.648;9.004;2023-03-11T01:58:52;97188.78;;;11.73;36.63
59063;BME280;44851;45.648;9.004;2023-03-11T02:01:19;97191.69;;;11.84;36.76
59063;BME280;44851;45.648;9.004;2023-03-11T02:03:46;97185.09;;;11.88;36.79
59063;BME280;44851;45.648;9.004;2023-03-11T02:06:18;97188.84;;;11.79;36.45
59063;BME280;44851;45.648;9.004;2023-03-11T02:08:44;97185.69;;;11.90;36.29
59063;BME280;44851;45.648;9.004;2023-03-11T02:11:15;97177.16;;;11.75;36.28
59063;BME280;44851;45.648;9.004;2023-03-11T02:13:42;97175.84;;;11.58;36.75
59063;BME280;44851;45.648;9.004;2023-03-11T02:16:08;97184.38;;;11.73;36.30
59063;BME280;44851;45.648;9.004;2023-03-11T02:18:35;97171.59;;;11.85;36.32
59063;BME280;44851;45.648;9.004;2023-03-11T02:21:27;97182.34;;;11.69;36.45
59063;BME280;44851;45.648;9.004;2023-03-11T02:29:15;97190.31;;;11.88;35.42
59063;BME280;44851;45.648;9.004;2023-03-11T02:31:41;97178.84;;;11.89;36.00
59063;BME280;44851;45.648;9.004;2023-03-11T02:34:14;97167.44;;;11.62;36.22
59063;BME280;44851;45.648;9.004;2023-03-11T02:36:41;97156.69;;;11.72;35.92
59063;BME280;44851;45.648;9.004;2023-03-11T02:39:08;97165.13;;;11.81;35.93
59063;BME280;44851;45.648;9.004;2023-03-11T02:41:38;97181.78;;;11.73;36.12
59063;BME280;44851;45.648;9.004;2023-03-11T02:44:07;97174.31;;;11.70;36.65
59063;BME280;44851;45.648;9.004;2023-03-11T02:46:35;97171.94;;;11.75;36.42
59063;BME280;44851;45.648;9.004;2023-03-11T02:49:01;97164.72;;;11.77;35.95
59063;BME280;44851;45.648;9.004;2023-03-11T02:51:27;97145.03;;;11.75;36.37
59063;BME280;44851;45.648;9.004;2023-03-11T02:53:56;97135.41;;;11.75;36.27
59063;BME280;44851;45.648;9.004;2023-03-11T02:56:24;97131.72;;;11.63;36.18
59063;BME280;44851;45.648;9.004;2023-03-11T02:58:49;97134.13;;;11.64;36.23
59063;BME280;44851;45.648;9.004;2023-03-11T03:01:15;97135.75;;;11.65;36.79
59063;BME280;44851;45.648;9.004;2023-03-11T03:03:40;97105.63;;;11.63;36.59
59063;BME280;44851;45.648;9.004;2023-03-11T03:06:06;97097.81;;;11.63;36.61
59063;BME280;44851;45.648;9.004;2023-03-11T03:08:31;97120.06;;;11.59;36.57
59063;BME280;44851;45.648;9.004;2023-03-11T03:10:57;97127.84;;;11.52;36.25
59063;BME280;44851;45.648;9.004;2023-03-11T03:13:24;97133.22;;;11.51;36.84
59063;BME280;44851;45.648;9.004;2023-03-11T03:15:50;97134.00;;;11.45;36.86
59063;BME280;44851;45.648;9.004;2023-03-11T03:18:16;97132.03;;;11.47;37.25
59063;BME280;44851;45.648;9.004;2023-03-11T03:20:41;97137.66;;;11.50;36.99
59063;BME280;44851;45.648;9.004;2023-03-11T03:23:07;97154.50;;;11.48;37.24
59063;BME280;44851;45.648;9.004;2023-03-11T03:25:32;97158.47;;;11.44;37.18
59063;BME280;44851;45.648;9.004;2023-03-11T03:27:58;97155.75;;;11.52;37.61
59063;BME280;44851;45.648;9.004;2023-03-11T03:30:23;97162.94;;;11.50;37.75
59063;BME280;44851;45.648;9.004;2023-03-11T03:32:49;97154.63;;;11.39;37.77
59063;BME280;44851;45.648;9.004;2023-03-11T03:35:14;97134.75;;;11.38;37.60
59063;BME280;44851;45.648;9.004;2023-03-11T03:37:40;97094.88;;;11.45;37.40
59063;BME280;44851;45.648;9.004;2023-03-11T03:40:06;97072.81;;;11.47;36.90
59063;BME280;44851;45.648;9.004;2023-03-11T03:42:33;97103.84;;;11.35;37.20
59063;BME280;44851;45.648;9.004;2023-03-11T03:44:59;97145.13;;;11.25;37.50
59063;BME280;44851;45.648;9.004;2023-03-11T03:47:24;97134.69;;;11.25;37.73
59063;BME280;44851;45.648;9.004;2023-03-11T03:49:50;97139.41;;;11.15;37.38
59063;BME280;44851;45.648;9.004;2023-03-11T03:52:15;97155.53;;;11.25;37.09
59063;BME280;44851;45.648;9.004;2023-03-11T03:54:41;97169.44;;;11.32;36.89
59063;BME280;44851;45.648;9.004;2023-03-11T03:57:06;97180.09;;;11.37;36.94
59063;BME280;44851;45.648;9.004;2023-03-11T03:59:32;97192.41;;;11.22;37.44
59063;BME280;44851;45.648;9.004;2023-03-11T04:01:57;97199.72;;;11.33;37.14
59063;BME280;44851;45.648;9.004;2023-03-11T04:04:23;97181.22;;;11.28;36.96
59063;BME280;44851;45.648;9.004;2023-03-11T04:06:48;97181.66;;;11.32;36.76
59063;BME280;44851;45.648;9.004;2023-03-11T04:09:14;97162.59;;;11.31;37.12
59063;BME280;44851;45.648;9.004;2023-03-11T04:11:39;97158.44;;;11.37;36.54
59063;BME280;44851;45.648;9.004;2023-03-11T04:14:05;97163.13;;;11.20;36.91
59063;BME280;44851;45.648;9.004;2023-03-11T04:16:31;97146.69;;;11.20;37.06
59063;BME280;44851;45.648;9.004;2023-03-11T04:18:56;97147.81;;;11.38;36.98
59063;BME280;44851;45.648;9.004;2023-03-11T04:21:22;97139.38;;;11.36;36.51
59063;BME280;44851;45.648;9.004;2023-03-11T04:23:48;97126.69;;;11.33;36.64
59063;BME280;44851;45.648;9.004;2023-03-11T04:26:13;97139.09;;;11.25;37.08
59063;BME280;44851;45.648;9.004;2023-03-11T04:28:39;97159.38;;;11.29;36.85
59063;BME280;44851;45.648;9.004;2023-03-11T04:31:04;97160.44;;;11.35;36.65
59063;BME280;44851;45.648;9.004;2023-03-11T04:33:29;97126.16;;;11.45;36.31
59063;BME280;44851;45.648;9.004;2023-03-11T04:35:55;97110.28;;;11.39;36.97
59063;BME280;44851;45.648;9.004;2023-03-11T04:38:21;97107.91;;;11.45;36.86
59063;BME280;44851;45.648;9.004;2023-03-11T04:40:46;97100.25;;;11.36;37.11
59063;BME280;44851;45.648;9.004;2023-03-11T04:43:12;97098.56;;;11.29;37.60
59063;BME280;44851;45.648;9.004;2023-03-11T04:45:38;97103.47;;;11.38;37.06
59063;BME280;44851;45.648;9.004;2023-03-11T04:48:04;97101.41;;;11.34;37.32
59063;BME280;44851;45.648;9.004;2023-03-11T04:50:30;97096.28;;;11.41;37.08
59063;BME280;44851;45.648;9.004;2023-03-11T04:52:55;97089.41;;;11.39;37.51
59063;BME280;44851;45.648;9.004;2023-03-11T04:55:21;97085.22;;;11.38;37.67
59063;BME280;44851;45.648;9.004;2023-03-11T04:57:47;97085.78;;;11.34;38.00
59063;BME280;44851;45.648;9.004;2023-03-11T05:00:14;97097.97;;;11.27;37.87
59063;BME280;44851;45.648;9.004;2023-03-11T05:02:40;97131.84;;;11.20;37.73
59063;BME280;44851;45.648;9.004;2023-03-11T05:05:07;97144.25;;;11.18;37.76
59063;BME280;44851;45.648;9.004;2023-03-11T05:07:33;97176.28;;;11.12;37.57
59063;BME280;44851;45.648;9.004;2023-03-11T05:09:59;97190.22;;;10.98;38.09
59063;BME280;44851;45.648;9.004;2023-03-11T05:12:24;97202.31;;;11.05;37.85
59063;BME280;44851;45.648;9.004;2023-03-11T05:14:50;97202.84;;;11.22;37.50
59063;BME280;44851;45.648;9.004;2023-03-11T05:17:15;97211.31;;;11.24;37.30
59063;BME280;44851;45.648;9.004;2023-03-11T05:19:43;97194.28;;;11.28;37.33
59063;BME280;44851;45.648;9.004;2023-03-11T05:22:09;97188.66;;;11.25;37.53
59063;BME280;44851;45.648;9.004;2023-03-11T05:24:35;97183.53;;;11.17;37.81
59063;BME280;44851;45.648;9.004;2023-03-11T05:27:00;97151.53;;;11.29;37.71
59063;BME280;44851;45.648;9.004;2023-03-11T05:29:26;97117.03;;;11.27;37.75
59063;BME280;44851;45.648;9.004;2023-03-11T05:31:52;97101.78;;;11.24;37.93
59063;BME280;44851;45.648;9.004;2023-03-11T05:34:18;97082.69;;;11.24;38.61
59063;BME280;44851;45.648;9.004;2023-03-11T05:36:44;97108.53;;;11.19;38.43
59063;BME280;44851;45.648;9.004;2023-03-11T05:39:09;97089.25;;;11.13;39.21
59063;BME280;44851;45.648;9.004;2023-03-11T05:41:35;97076.72;;;11.02;38.63
59063;BME280;44851;45.648;9.004;2023-03-11T05:44:01;97120.03;;;11.03;38.96
59063;BME280;44851;45.648;9.004;2023-03-11T05:46:27;97182.25;;;11.06;38.79
59063;BME280;44851;45.648;9.004;2023-03-11T05:48:52;97179.44;;;11.07;38.18
59063;BME280;44851;45.648;9.004;2023-03-11T05:51:18;97172.19;;;11.03;38.50
59063;BME280;44851;45.648;9.004;2023-03-11T05:53:45;97159.63;;;11.13;38.39
59063;BME280;44851;45.648;9.004;2023-03-11T05:56:13;97172.69;;;11.13;38.65
59063;BME280;44851;45.648;9.004;2023-03-11T05:58:39;97168.69;;;11.17;38.59
59063;BME280;44851;45.648;9.004;2023-03-11T06:01:12;97145.63;;;11.14;37.97
59063;BME280;44851;45.648;9.004;2023-03-11T06:03:39;97136.28;;;11.26;38.42
59063;BME280;44851;45.648;9.004;2023-03-11T06:06:09;97131.69;;;11.28;37.91
59063;BME280;44851;45.648;9.004;2023-03-11T06:08:35;97134.91;;;11.30;38.24
59063;BME280;44851;45.648;9.004;2023-03-11T06:11:07;97135.47;;;11.26;39.07
59063;BME280;44851;45.648;9.004;2023-03-11T06:13:33;97155.16;;;11.28;38.54
59063;BME280;44851;45.648;9.004;2023-03-11T06:15:59;97151.66;;;11.43;38.48
59063;BME280;44851;45.648;9.004;2023-03-11T06:18:25;97146.81;;;11.39;39.11
59063;BME280;44851;45.648;9.004;2023-03-11T06:20:52;97137.16;;;11.40;39.81
59063;BME280;44851;45.648;9.004;2023-03-11T06:23:18;97150.84;;;11.42;40.01
59063;BME280;44851;45.648;9.004;2023-03-11T06:25:43;97165.16;;;11.53;38.71
59063;BME280;44851;45.648;9.004;2023-03-11T06:28:09;97162.16;;;11.56;39.04
59063;BME280;44851;45.648;9.004;2023-03-11T06:30:35;97153.38;;;11.57;38.67
59063;BME280;44851;45.648;9.004;2023-03-11T06:33:00;97145.59;;;11.70;38.55
59063;BME280;44851;45.648;9.004;2023-03-11T06:35:26;97150.22;;;11.68;39.89
59063;BME280;44851;45.648;9.004;2023-03-11T06:37:51;97155.81;;;11.65;40.16
59063;BME280;44851;45.648;9.004;2023-03-11T06:40:17;97149.94;;;11.56;41.22
59063;BME280;44851;45.648;9.004;2023-03-11T06:42:45;97152.16;;;11.59;40.85
59063;BME280;44851;45.648;9.004;2023-03-11T06:45:11;97141.94;;;11.58;39.28
59063;BME280;44851;45.648;9.004;2023-03-11T06:47:37;97143.53;;;11.59;39.83
59063;BME280;44851;45.648;9.004;2023-03-11T06:50:02;97141.44;;;11.82;39.20
59063;BME280;44851;45.648;9.004;2023-03-11T06:52:31;97157.50;;;11.79;39.88
59063;BME280;44851;45.648;9.004;2023-03-11T06:54:56;97158.56;;;11.91;40.03
59063;BME280;44851;45.648;9.004;2023-03-11T06:57:21;97159.44;;;11.99;38.86
59063;BME280;44851;45.648;9.004;2023-03-11T06:59:47;97164.50;;;12.07;41.00
59063;BME280;44851;45.648;9.004;2023-03-11T07:02:13;97167.00;;;12.28;39.30
59063;BME280;44851;45.648;9.004;2023-03-11T07:04:39;97176.28;;;12.31;39.06
59063;BME280;44851;45.648;9.004;2023-03-11T07:07:04;97183.16;;;12.52;39.90
59063;BME280;44851;45.648;9.004;2023-03-11T07:09:30;97177.03;;;12.79;39.67
59063;BME280;44851;45.648;9.004;2023-03-11T07:11:55;97189.69;;;12.89;40.38
59063;BME280;44851;45.648;9.004;2023-03-11T07:14:21;97204.28;;;13.25;38.25
59063;BME280;44851;45.648;9.004;2023-03-11T07:16:46;97199.44;;;13.41;37.47
59063;BME280;44851;45.648;9.004;2023-03-11T07:19:12;97199.63;;;13.73;37.65
59063;BME280;44851;45.648;9.004;2023-03-11T07:21:38;97205.63;;;14.00;38.32
59063;BME280;44851;45.648;9.004;2023-03-11T07:24:04;97204.88;;;14.51;38.86
59063;BME280;44851;45.648;9.004;2023-03-11T07:26:31;97203.06;;;14.90;36.81
59063;BME280;44851;45.648;9.004;2023-03-11T07:28:58;97210.38;;;15.13;34.88
59063;BME280;44851;45.648;9.004;2023-03-11T07:31:29;97209.72;;;15.30;34.62
59063;BME280;44851;45.648;9.004;2023-03-11T07:33:57;97209.84;;;15.61;34.29
59063;BME280;44851;45.648;9.004;2023-03-11T07:36:24;97216.69;;;15.87;34.29
59063;BME280;44851;45.648;9.004;2023-03-11T07:38:54;97214.75;;;16.00;33.54
59063;BME280;44851;45.648;9.004;2023-03-11T07:41:22;97207.50;;;16.14;32.73
59063;BME280;44851;45.648;9.004;2023-03-11T07:43:47;97207.94;;;16.36;36.16
59063;BME280;44851;45.648;9.004;2023-03-11T07:46:15;97209.63;;;16.30;32.16
59063;BME280;44851;45.648;9.004;2023-03-11T07:48:43;97223.09;;;16.34;32.61
59063;BME280;44851;45.648;9.004;2023-03-11T07:51:18;97216.13;;;16.46;31.60
59063;BME280;44851;45.648;9.004;2023-03-11T07:53:45;97212.41;;;16.66;31.62
59063;BME280;44851;45.648;9.004;2023-03-11T07:56:11;97198.78;;;16.87;32.11
59063;BME280;44851;45.648;9.004;2023-03-11T07:58:38;97206.38;;;16.95;31.93
59063;BME280;44851;45.648;9.004;2023-03-11T08:01:13;97210.47;;;17.21;31.10
59063;BME280;44851;45.648;9.004;2023-03-11T08:03:46;97212.44;;;16.96;32.08
59063;BME280;44851;45.648;9.004;2023-03-11T08:06:20;97215.50;;;17.11;30.93
59063;BME280;44851;45.648;9.004;2023-03-11T08:08:48;97218.00;;;17.18;30.93
59063;BME280;44851;45.648;9.004;2023-03-11T08:11:15;97222.31;;;17.42;30.02
59063;BME280;44851;45.648;9.004;2023-03-11T08:13:42;97222.44;;;17.59;30.93
59063;BME280;44851;45.648;9.004;2023-03-11T08:16:09;97217.41;;;17.69;28.94
59063;BME280;44851;45.648;9.004;2023-03-11T08:18:35;97207.78;;;17.86;29.67
59063;BME280;44851;45.648;9.004;2023-03-11T08:21:08;97204.81;;;18.18;29.17
59063;BME280;44851;45.648;9.004;2023-03-11T08:23:34;97201.00;;;18.26;28.07
59063;BME280;44851;45.648;9.004;2023-03-11T08:26:08;97182.78;;;18.24;26.95
59063;BME280;44851;45.648;9.004;2023-03-11T08:28:34;97177.66;;;18.46;28.17
59063;BME280;44851;45.648;9.004;2023-03-11T08:31:00;97199.59;;;18.87;28.11
59063;BME280;44851;45.648;9.004;2023-03-11T08:33:26;97206.13;;;19.13;29.73
59063;BME280;44851;45.648;9.004;2023-03-11T08:35:52;97211.41;;;19.13;27.46
59063;BME280;44851;45.648;9.004;2023-03-11T08:38:17;97203.69;;;19.11;26.52
59063;BME280;44851;45.648;9.004;2023-03-11T08:40:43;97198.34;;;19.23;27.00
59063;BME280;44851;45.648;9.004;2023-03-11T08:43:12;97190.91;;;19.37;26.67
59063;BME280;44851;45.648;9.004;2023-03-11T08:45:41;97175.41;;;19.40;26.37
59063;BME280;44851;45.648;9.004;2023-03-11T08:48:09;97168.53;;;19.95;29.43
59063;BME280;44851;45.648;9.004;2023-03-11T08:50:35;97180.78;;;20.01;27.40
59063;BME280;44851;45.648;9.004;2023-03-11T08:53:00;97177.09;;;20.24;28.62
59063;BME280;44851;45.648;9.004;2023-03-11T08:55:27;97166.94;;;20.60;28.17
59063;BME280;44851;45.648;9.004;2023-03-11T08:57:54;97155.97;;;20.46;26.46
59063;BME280;44851;45.648;9.004;2023-03-11T09:00:19;97162.53;;;20.43;26.14
59063;BME280;44851;45.648;9.004;2023-03-11T09:02:45;97178.72;;;20.47;25.16
59063;BME280;44851;45.648;9.004;2023-03-11T09:05:11;97190.94;;;20.75;28.09
59063;BME280;44851;45.648;9.004;2023-03-11T09:07:37;97192.75;;;20.96;26.62
59063;BME280;44851;45.648;9.004;2023-03-11T09:10:03;97185.34;;;20.71;25.33
59063;BME280;44851;45.648;9.004;2023-03-11T09:12:28;97186.00;;;20.84;24.41
59063;BME280;44851;45.648;9.004;2023-03-11T09:14:54;97197.25;;;20.96;24.37
59063;BME280;44851;45.648;9.004;2023-03-11T09:17:20;97210.81;;;20.77;24.13
59063;BME280;44851;45.648;9.004;2023-03-11T09:19:45;97216.13;;;20.77;24.35
59063;BME280;44851;45.648;9.004;2023-03-11T09:22:11;97225.44;;;21.07;24.66
59063;BME280;44851;45.648;9.004;2023-03-11T09:24:36;97237.84;;;21.28;24.94
59063;BME280;44851;45.648;9.004;2023-03-11T09:27:02;97247.03;;;21.48;24.42
59063;BME280;44851;45.648;9.004;2023-03-11T09:29:27;97241.88;;;21.09;23.63
59063;BME280;44851;45.648;9.004;2023-03-11T09:31:53;97242.75;;;21.15;24.91
59063;BME280;44851;45.648;9.004;2023-03-11T09:34:19;97250.81;;;21.03;24.69
59063;BME280;44851;45.648;9.004;2023-03-11T09:36:45;97256.91;;;21.03;24.36
59063;BME280;44851;45.648;9.004;2023-03-11T09:39:11;97260.81;;;20.96;24.06
59063;BME280;44851;45.648;9.004;2023-03-11T09:42:02;97260.63;;;21.02;24.40
59063;BME280;44851;45.648;9.004;2023-03-11T09:45:07;97250.59;;;21.05;23.30
59063;BME280;44851;45.648;9.004;2023-03-11T09:55:49;97258.28;;;21.06;25.46
59063;BME280;44851;45.648;9.004;2023-03-11T10:03:51;97236.75;;;20.75;25.05
59063;BME280;44851;45.648;9.004;2023-03-11T10:09:29;97248.16;;;20.54;23.94
59063;BME280;44851;45.648;9.004;2023-03-11T10:20:00;97266.63;;;21.47;22.20
59063;BME280;44851;45.648;9.004;2023-03-11T10:22:41;97273.19;;;21.71;24.02
59063;BME280;44851;45.648;9.004;2023-03-11T10:27:51;97271.75;;;21.53;22.09
59063;BME280;44851;45.648;9.004;2023-03-11T10:30:30;97267.41;;;21.74;21.80
59063;BME280;44851;45.648;9.004;2023-03-11T10:33:05;97269.78;;;21.76;23.91
59063;BME280;44851;45.648;9.004;2023-03-11T10:35:38;97262.56;;;21.66;22.54
59063;BME280;44851;45.648;9.004;2023-03-11T10:40:40;97251.38;;;22.39;23.99
59063;BME280;44851;45.648;9.004;2023-03-11T10:43:12;97249.09;;;22.10;22.72
59063;BME280;44851;45.648;9.004;2023-03-11T10:45:41;97242.31;;;22.29;23.79
59063;BME280;44851;45.648;9.004;2023-03-11T10:48:13;97248.16;;;22.31;22.44
59063;BME280;44851;45.648;9.004;2023-03-11T10:53:18;97270.03;;;22.54;23.03
59063;BME280;44851;45.648;9.004;2023-03-11T10:55:56;97274.00;;;22.51;22.10
59063;BME280;44851;45.648;9.004;2023-03-11T10:58:27;97263.03;;;22.32;22.49
59063;BME280;44851;45.648;9.004;2023-03-11T11:01:13;97270.53;;;22.51;22.26
59063;BME280;44851;45.648;9.004;2023-03-11T11:03:46;97257.31;;;22.56;22.35
59063;BME280;44851;45.648;9.004;2023-03-11T11:06:33;97255.28;;;22.78;23.05
59063;BME280;44851;45.648;9.004;2023-03-11T11:09:09;97257.75;;;22.43;22.39
59063;BME280;44851;45.648;9.004;2023-03-11T11:11:36;97261.00;;;22.55;23.16
59063;BME280;44851;45.648;9.004;2023-03-11T11:14:04;97259.03;;;22.82;22.78
59063;BME280;44851;45.648;9.004;2023-03-11T11:16:32;97264.84;;;22.84;22.86
59063;BME280;44851;45.648;9.004;2023-03-11T11:19:12;97255.19;;;22.58;22.77
59063;BME280;44851;45.648;9.004;2023-03-11T11:21:46;97261.09;;;22.65;22.34
59063;BME280;44851;45.648;9.004;2023-03-11T11:24:27;97260.19;;;22.49;22.52
59063;BME280;44851;45.648;9.004;2023-03-11T11:27:17;97272.22;;;22.62;22.96
59063;BME280;44851;45.648;9.004;2023-03-11T11:29:43;97262.75;;;22.87;22.60
59063;BME280;44851;45.648;9.004;2023-03-11T11:35:13;97268.53;;;22.68;22.58
59063;BME280;44851;45.648;9.004;2023-03-11T11:37:42;97268.09;;;22.97;23.45
59063;BME280;44851;45.648;9.004;2023-03-11T11:42:49;97264.81;;;22.74;22.17
59063;BME280;44851;45.648;9.004;2023-03-11T11:45:33;97255.25;;;22.68;22.12
59063;BME280;44851;45.648;9.004;2023-03-11T11:48:05;97263.16;;;22.58;22.71
59063;BME280;44851;45.648;9.004;2023-03-11T11:50:32;97250.50;;;22.75;21.69
59063;BME280;44851;45.648;9.004;2023-03-11T11:53:36;97251.53;;;22.74;22.09
59063;BME280;44851;45.648;9.004;2023-03-11T11:56:05;97255.28;;;22.78;23.77
59063;BME280;44851;45.648;9.004;2023-03-11T11:58:30;97256.44;;;23.03;22.18
59063;BME280;44851;45.648;9.004;2023-03-11T12:06:41;97257.56;;;23.38;22.70
59063;BME280;44851;45.648;9.004;2023-03-11T12:09:12;97238.97;;;23.58;22.08
59063;BME280;44851;45.648;9.004;2023-03-11T12:12:08;97230.97;;;23.43;21.65
59063;BME280;44851;45.648;9.004;2023-03-11T12:14:44;97238.44;;;23.56;22.87
59063;BME280;44851;45.648;9.004;2023-03-11T12:17:16;97245.88;;;23.64;21.81
59063;BME280;44851;45.648;9.004;2023-03-11T12:19:55;97241.09;;;23.66;21.70
59063;BME280;44851;45.648;9.004;2023-03-11T12:30:35;97219.50;;;24.08;22.91
59063;BME280;44851;45.648;9.004;2023-03-11T12:33:11;97205.69;;;23.81;20.48
59063;BME280;44851;45.648;9.004;2023-03-11T12:35:38;97206.72;;;24.10;21.37
59063;BME280;44851;45.648;9.004;2023-03-11T12:38:26;97196.06;;;24.10;21.15
59063;BME280;44851;45.648;9.004;2023-03-11T12:40:59;97193.13;;;24.12;21.26
59063;BME280;44851;45.648;9.004;2023-03-11T12:46:11;97202.22;;;23.96;20.95
59063;BME280;44851;45.648;9.004;2023-03-11T12:48:43;97205.13;;;24.09;20.90
59063;BME280;44851;45.648;9.004;2023-03-11T12:53:50;97191.06;;;23.94;20.80
59063;BME280;44851;45.648;9.004;2023-03-11T13:01:55;97193.72;;;23.83;21.43
59063;BME280;44851;45.648;9.004;2023-03-11T13:12:46;97173.34;;;24.33;21.35
59063;BME280;44851;45.648;9.004;2023-03-11T13:18:02;97181.91;;;24.30;21.50
59063;BME280;44851;45.648;9.004;2023-03-11T13:30:50;97173.16;;;24.20;19.67
59063;BME280;44851;45.648;9.004;2023-03-11T13:33:24;97184.63;;;24.10;20.83
59063;BME280;44851;45.648;9.004;2023-03-11T13:36:04;97180.38;;;24.09;20.75
59063;BME280;44851;45.648;9.004;2023-03-11T13:38:59;97193.13;;;24.12;20.83
59063;BME280;44851;45.648;9.004;2023-03-11T13:41:34;97186.22;;;24.16;20.03
59063;BME280;44851;45.648;9.004;2023-03-11T13:44:21;97190.50;;;24.02;20.34
59063;BME280;44851;45.648;9.004;2023-03-11T13:47:14;97192.13;;;23.93;20.15
59063;BME280;44851;45.648;9.004;2023-03-11T13:52:23;97197.94;;;24.15;21.23
59063;BME280;44851;45.648;9.004;2023-03-11T13:55:17;97199.22;;;24.23;20.74
59063;BME280;44851;45.648;9.004;2023-03-11T13:57:56;97202.94;;;24.32;20.75
59063;BME280;44851;45.648;9.004;2023-03-11T14:00:27;97199.97;;;24.33;19.91
59063;BME280;44851;45.648;9.004;2023-03-11T14:02:56;97207.25;;;24.07;19.61
59063;BME280;44851;45.648;9.004;2023-03-11T14:05:45;97207.00;;;23.88;21.65
59063;BME280;44851;45.648;9.004;2023-03-11T14:10:58;97223.19;;;24.18;21.25
59063;BME280;44851;45.648;9.004;2023-03-11T14:13:28;97224.56;;;24.05;20.39
59063;BME280;44851;45.648;9.004;2023-03-11T14:18:38;97221.94;;;23.49;19.87
59063;BME280;44851;45.648;9.004;2023-03-11T14:21:09;97221.41;;;23.62;20.40
59063;BME280;44851;45.648;9.004;2023-03-11T14:23:40;97224.06;;;23.72;20.66
59063;BME280;44851;45.648;9.004;2023-03-11T14:26:11;97223.56;;;23.60;20.12
59063;BME280;44851;45.648;9.004;2023-03-11T14:28:41;97229.13;;;23.63;21.38
59063;BME280;44851;45.648;9.004;2023-03-11T14:31:41;97232.56;;;23.54;20.54
59063;BME280;44851;45.648;9.004;2023-03-11T14:36:49;97233.59;;;23.22;20.17
59063;BME280;44851;45.648;9.004;2023-03-11T14:45:03;97228.88;;;23.40;21.08
59063;BME280;44851;45.648;9.004;2023-03-11T14:47:49;97226.66;;;23.11;21.54
59063;BME280;44851;45.648;9.004;2023-03-11T14:50:22;97218.69;;;23.11;21.04
59063;BME280;44851;45.648;9.004;2023-03-11T14:53:00;97227.75;;;23.20;21.05
59063;BME280;44851;45.648;9.004;2023-03-11T14:55:32;97228.28;;;23.12;21.76